Time;durP1;ratioP1;P1;durP2;ratioP2;P2;SDS_P1;SDS_P2;PMS_P1;PMS_P2;Temp;Humidity;BMP_temperature;BMP_pressure;BME280_temperature;BME280_humidity;BME280_pressure;Samples;Min_cycle;Max_cycle;Signal;HPM_P1;HPM_P2
2022/02/02 00:00:23;;;;;;;1.98;1.77;;;;;;;4.64;51.85;98103.56;3361670;29;20041;-73
2022/02/02 00:03:49;;;;;;;2.20;1.92;;;;;;;4.59;52.03;98095.41;3362843;29;20068;-73
2022/02/02 00:05:41;;;;;;;2.03;1.80;;;;;;;4.58;52.08;98097.25;3362636;29;20045;-74
2022/02/02 00:08:01;;;;;;;1.98;1.70;;;;;;;4.65;52.00;98107.84;3361776;29;20055;-73
2022/02/02 00:09:29;;;;;;;5.00;1.80;;;;;;;4.68;51.94;98110.09;3363672;29;20053;-73
2022/02/02 00:12:08;;;;;;;3.05;1.80;;;;;;;4.66;52.05;98104.19;3362851;29;20037;-74
2022/02/02 00:15:46;;;;;;;2.97;1.77;;;;;;;4.67;51.86;98110.25;3362521;29;20523;-74
2022/02/02 00:17:48;;;;;;;2.22;2.00;;;;;;;4.67;51.74;98105.78;3362702;29;20096;-74
2022/02/02 00:23:01;;;;;;;2.13;1.70;;;;;;;4.54;51.86;98100.44;3362385;29;20045;-74
2022/02/02 00:26:37;;;;;;;2.00;1.80;;;;;;;4.47;51.83;98099.63;3361932;29;20100;-74
2022/02/02 00:28:25;;;;;;;3.08;2.10;;;;;;;4.45;52.07;98110.38;3361842;29;20644;-73
2022/02/02 00:30:09;;;;;;;2.17;1.90;;;;;;;4.44;52.17;98105.28;3348327;29;20060;-74
2022/02/02 00:31:58;;;;;;;2.63;1.67;;;;;;;4.46;52.15;98109.34;3359864;29;20048;-74
2022/02/02 00:33:47;;;;;;;2.05;1.85;;;;;;;4.47;52.23;98107.53;3361636;29;20068;-73
2022/02/02 00:35:33;;;;;;;2.05;1.85;;;;;;;4.48;52.22;98109.16;3361786;29;20599;-73
2022/02/02 00:37:15;;;;;;;2.35;2.10;;;;;;;4.46;52.31;98109.34;3361860;29;20180;-73
2022/02/02 00:38:56;;;;;;;3.28;2.40;;;;;;;4.44;52.20;98100.00;3361649;29;20120;-73
2022/02/02 00:40:36;;;;;;;3.58;2.75;;;;;;;4.44;52.29;98100.84;3361008;29;20463;-73
2022/02/02 00:42:17;;;;;;;4.43;2.13;;;;;;;4.44;52.15;98097.34;3361815;29;20044;-74
2022/02/02 00:44:00;;;;;;;2.35;2.15;;;;;;;4.43;52.29;98103.66;3361564;29;20041;-73
2022/02/02 00:45:46;;;;;;;2.53;2.15;;;;;;;4.44;52.48;98102.63;3361850;29;20056;-73
2022/02/02 00:47:33;;;;;;;4.47;2.78;;;;;;;4.43;52.23;98099.19;3361732;29;20037;-73
2022/02/02 00:49:14;;;;;;;2.42;2.17;;;;;;;4.42;52.16;98099.41;3361988;29;20049;-73
2022/02/02 00:50:55;;;;;;;2.72;2.53;;;;;;;4.41;52.09;98100.38;3361015;29;20568;-74
2022/02/02 00:52:36;;;;;;;3.40;2.20;;;;;;;4.43;52.21;98104.47;3361351;29;20060;-74
2022/02/02 00:54:18;;;;;;;4.65;2.53;;;;;;;4.45;52.30;98105.09;3361617;29;20049;-75
2022/02/02 00:55:59;;;;;;;5.00;2.53;;;;;;;4.48;52.28;98107.31;3361509;29;20445;-72
2022/02/02 00:57:40;;;;;;;2.63;2.10;;;;;;;4.50;52.26;98107.16;3361925;29;20048;-73
2022/02/02 00:59:24;;;;;;;4.82;2.75;;;;;;;4.54;52.09;98108.38;3361735;29;20116;-73
2022/02/02 01:01:05;;;;;;;2.65;2.25;;;;;;;4.59;52.13;98103.31;3361839;29;20128;-74
2022/02/02 01:02:46;;;;;;;2.78;2.30;;;;;;;4.62;52.23;98118.78;3361981;29;20052;-74
2022/02/02 01:04:28;;;;;;;9.90;2.30;;;;;;;4.62;52.09;98113.50;3363880;29;20052;-72
2022/02/02 01:06:13;;;;;;;5.85;3.30;;;;;;;4.63;52.02;98114.31;3364452;29;20211;-76
2022/02/02 01:09:42;;;;;;;2.63;1.80;;;;;;;4.61;52.11;98103.13;3364036;29;20045;-75
2022/02/02 01:13:35;;;;;;;3.03;2.63;;;;;;;4.66;51.88;98124.47;3363667;29;20053;-72
2022/02/02 01:21:06;;;;;;;2.17;1.90;;;;;;;4.67;51.64;98131.38;3363772;29;20605;-73
2022/02/02 01:28:41;;;;;;;3.25;2.30;;;;;;;4.65;51.56;98128.94;3522211;28;20040;-74
2022/02/02 01:30:25;;;;;;;2.70;2.05;;;;;;;4.67;51.58;98136.66;3522302;28;20138;-73
2022/02/02 01:32:06;;;;;;;2.75;2.20;;;;;;;4.64;51.55;98129.94;3521015;28;20509;-74
2022/02/02 01:33:47;;;;;;;3.10;2.17;;;;;;;4.65;51.52;98139.50;3521968;28;20078;-73
2022/02/02 01:35:28;;;;;;;4.85;2.65;;;;;;;4.66;51.62;98135.84;3521988;28;20043;-73
2022/02/02 01:37:09;;;;;;;2.50;2.30;;;;;;;4.65;51.65;98131.59;3522003;28;20046;-73
2022/02/02 01:38:52;;;;;;;3.13;2.65;;;;;;;4.63;51.42;98135.44;3522037;28;20096;-73
2022/02/02 01:40:37;;;;;;;3.17;2.42;;;;;;;4.57;51.38;98131.75;3521649;28;20047;-74
2022/02/02 01:42:19;;;;;;;3.15;2.38;;;;;;;4.53;51.31;98135.78;3521063;28;20039;-73
2022/02/02 01:44:12;;;;;;;2.60;2.33;;;;;;;4.53;51.32;98141.03;3520911;28;20040;-75
2022/02/02 01:45:58;;;;;;;2.65;2.13;;;;;;;4.54;51.26;98132.13;3521901;28;20128;-74
2022/02/02 01:47:50;;;;;;;3.70;2.22;;;;;;;4.55;51.38;98133.75;3520874;28;20044;-76
2022/02/02 01:55:04;;;;;;;3.50;2.03;;;;;;;4.48;51.30;98125.00;3521642;28;20518;-80
2022/02/02 01:56:45;;;;;;;3.20;2.75;;;;;;;4.50;51.46;98131.69;3520720;28;20517;-74
2022/02/02 02:00:26;;;;;;;4.15;3.75;;;;;;;4.54;51.40;98129.47;3521529;28;20036;-75
2022/02/02 02:02:09;;;;;;;3.28;2.47;;;;;;;4.54;51.35;98137.38;3521363;28;20451;-72
2022/02/02 02:03:49;;;;;;;3.33;2.28;;;;;;;4.56;51.61;98130.09;3521846;28;20464;-74
2022/02/02 02:05:30;;;;;;;3.65;2.88;;;;;;;4.55;51.41;98128.47;3520362;28;20039;-74
2022/02/02 02:07:11;;;;;;;2.88;2.58;;;;;;;4.57;51.33;98137.03;3517619;28;20404;-72
2022/02/02 02:08:52;;;;;;;3.70;2.72;;;;;;;4.58;51.12;98125.44;3521213;28;20036;-74
2022/02/02 02:10:32;;;;;;;2.75;2.17;;;;;;;4.59;51.23;98137.63;3521587;28;20042;-75
2022/02/02 02:12:13;;;;;;;2.70;2.47;;;;;;;4.57;51.03;98126.47;3521704;28;20134;-74
2022/02/02 02:15:46;;;;;;;3.55;2.47;;;;;;;4.44;50.67;98127.22;3521570;28;20054;-73
2022/02/02 02:17:27;;;;;;;3.75;2.75;;;;;;;4.40;50.62;98128.59;3521588;28;20485;-73
2022/02/02 02:19:08;;;;;;;3.97;2.92;;;;;;;4.37;50.75;98124.53;3521315;28;20192;-74
2022/02/02 02:20:50;;;;;;;3.33;2.25;;;;;;;4.35;50.81;98113.34;3521577;28;20108;-74
2022/02/02 02:22:35;;;;;;;3.28;2.70;;;;;;;4.39;50.80;98119.06;3506491;28;20044;-75
2022/02/02 02:24:15;;;;;;;3.60;2.60;;;;;;;4.44;50.80;98126.38;3519078;28;20093;-74
2022/02/02 02:25:56;;;;;;;2.78;2.30;;;;;;;4.45;50.64;98120.09;3521037;28;20518;-74
2022/02/02 02:27:37;;;;;;;4.07;2.60;;;;;;;4.46;50.78;98127.00;3520987;28;20157;-73
2022/02/02 02:31:05;;;;;;;4.60;2.53;;;;;;;4.44;50.48;98126.38;3521147;28;20048;-74
2022/02/02 02:33:12;;;;;;;4.05;3.13;;;;;;;4.47;50.53;98128.66;3521651;28;20032;-74
2022/02/02 02:56:29;;;;;;;3.65;2.75;;;;;;;4.63;50.07;98157.34;3511589;28;20048;-73
2022/02/02 03:14:31;;;;;;;2.60;2.15;;;;;;;4.66;49.52;98175.41;3511339;28;20044;-74
2022/02/02 03:49:15;;;;;;;2.67;2.38;;;;;;;4.55;49.43;98197.88;3510648;28;20040;-75
2022/02/02 03:49:41;;;;;;;3.80;2.65;;;;;;;4.46;49.22;98208.78;3510101;28;20089;-75
2022/02/02 03:51:39;;;;;;;3.13;2.53;;;;;;;4.40;49.24;98209.56;3511044;28;20063;-76
2022/02/02 03:58:32;;;;;;;2.92;2.17;;;;;;;4.42;49.35;98220.72;3511361;28;20048;-74
2022/02/02 04:02:16;;;;;;;3.10;2.53;;;;;;;4.37;49.19;98222.09;3510700;28;20036;-74
2022/02/02 04:07:29;;;;;;;2.97;2.35;;;;;;;4.26;49.32;98227.91;3510676;28;20043;-74
2022/02/02 04:09:09;;;;;;;2.50;2.20;;;;;;;4.28;49.24;98231.16;3510730;28;20393;-73
2022/02/02 04:10:50;;;;;;;3.72;2.88;;;;;;;4.29;49.13;98234.63;3510833;28;20044;-73
2022/02/02 04:38:01;;;;;;;2.90;2.25;;;;;;;4.19;48.48;98261.31;3510479;28;20047;-73
2022/02/02 04:52:08;;;;;;;2.95;2.03;;;;;;;4.08;48.38;98269.69;3509166;28;20363;-73
2022/02/02 04:58:13;;;;;;;;;;;;;;;4.11;48.27;98258.81;3467956;28;20045;-79
2022/02/02 05:00:21;;;;;;;4.07;3.55;;;;;;;4.00;48.23;98267.19;3466002;28;20027;-80
2022/02/02 05:05:56;;;;;;;3.67;2.60;;;;;;;3.82;48.28;98279.00;3478589;28;20032;-75
2022/02/02 05:07:49;;;;;;;2.30;2.00;;;;;;;3.81;48.25;98279.97;3480960;28;20087;-79
2022/02/02 05:09:47;;;;;;;3.10;2.60;;;;;;;3.76;48.19;98277.06;3480975;28;20045;-76
2022/02/02 05:17:38;;;;;;;;;;;;;;;3.82;48.55;98291.31;3481470;28;20037;-73
2022/02/02 05:44:50;;;;;;;3.90;3.05;;;;;;;3.67;49.43;98321.16;3495457;28;20085;-80
2022/02/02 05:52:25;;;;;;;5.30;3.30;;;;;;;3.87;50.12;98325.84;3510400;28;20051;-78
2022/02/02 05:54:08;;;;;;;4.93;3.53;;;;;;;3.89;50.23;98324.66;3509480;28;20130;-80
2022/02/02 05:55:50;;;;;;;3.63;3.30;;;;;;;3.88;50.19;98328.31;3510928;28;20082;-78
2022/02/02 05:57:32;;;;;;;4.75;3.42;;;;;;;3.90;50.39;98334.22;3510616;28;20040;-78
2022/02/02 05:59:16;;;;;;;3.95;2.88;;;;;;;3.89;50.26;98327.28;3510912;28;20044;-82
2022/02/02 06:00:58;;;;;;;3.88;2.78;;;;;;;3.88;50.13;98330.13;3510265;28;20126;-79
2022/02/02 06:02:41;;;;;;;4.25;3.38;;;;;;;3.87;50.09;98329.31;3510894;28;20036;-78
2022/02/02 06:04:24;;;;;;;5.38;3.53;;;;;;;3.88;50.19;98327.50;3511495;28;20036;-78
2022/02/02 06:06:06;;;;;;;4.53;3.35;;;;;;;3.86;50.03;98327.66;3509744;28;20087;-77
2022/02/02 06:07:52;;;;;;;3.22;2.92;;;;;;;3.85;49.77;98325.25;3507641;28;20055;-77
2022/02/02 06:09:36;;;;;;;3.42;2.85;;;;;;;3.88;50.11;98333.59;3510330;28;20173;-80
2022/02/02 06:11:22;;;;;;;4.03;2.78;;;;;;;3.86;49.85;98327.66;3511556;28;20044;-81
2022/02/02 06:13:03;;;;;;;3.25;2.78;;;;;;;3.88;49.87;98336.22;3512576;28;20076;-77
2022/02/02 06:14:44;;;;;;;4.63;3.10;;;;;;;3.86;49.80;98346.13;3513622;28;20047;-81
2022/02/02 06:16:28;;;;;;;3.80;2.97;;;;;;;3.83;50.00;98340.41;3512686;28;20105;-80
2022/02/02 06:18:08;;;;;;;5.57;3.40;;;;;;;3.81;49.96;98340.59;3513654;28;20032;-81
2022/02/02 06:19:49;;;;;;;4.45;3.28;;;;;;;3.78;50.03;98335.69;3515247;28;20055;-80
2022/02/02 06:21:35;;;;;;;5.53;3.30;;;;;;;3.78;49.80;98340.97;3516425;28;20688;-78
2022/02/02 06:23:18;;;;;;;4.50;2.88;;;;;;;3.78;49.91;98338.31;3514833;28;20040;-78
2022/02/02 06:25:04;;;;;;;5.40;2.85;;;;;;;3.80;49.74;98340.78;3514430;28;20063;-79
2022/02/02 06:26:48;;;;;;;5.45;3.88;;;;;;;3.83;50.09;98335.94;3519085;28;20048;-77
2022/02/02 06:28:34;;;;;;;4.55;3.22;;;;;;;3.90;50.13;98346.59;3519648;28;20073;-81
2022/02/02 06:30:15;;;;;;;3.83;2.85;;;;;;;3.92;49.98;98347.19;3520899;28;20051;-79
2022/02/02 06:31:56;;;;;;;6.63;3.05;;;;;;;3.93;49.92;98349.66;3507171;28;20224;-77
2022/02/02 06:33:38;;;;;;;4.13;3.05;;;;;;;3.92;50.06;98348.03;3517236;28;20059;-79
2022/02/02 06:35:20;;;;;;;4.75;3.70;;;;;;;3.96;49.92;98364.28;3531019;28;20382;-80
2022/02/02 06:37:01;;;;;;;5.40;4.13;;;;;;;3.94;49.88;98353.09;3522270;28;20849;-80
2022/02/02 06:38:42;;;;;;;5.82;3.95;;;;;;;3.90;49.67;98355.31;3516608;28;20040;-80
2022/02/02 06:40:24;;;;;;;5.47;3.63;;;;;;;3.89;49.76;98351.00;3511963;28;20529;-80
2022/02/02 06:42:13;;;;;;;5.20;3.45;;;;;;;3.89;49.82;98356.28;3513112;28;20415;-79
2022/02/02 06:43:54;;;;;;;3.97;3.55;;;;;;;3.90;49.74;98357.94;3513404;28;20061;-79
2022/02/02 06:45:34;;;;;;;4.63;3.35;;;;;;;3.91;49.86;98361.38;3511819;28;20044;-78
2022/02/02 06:47:17;;;;;;;6.38;3.80;;;;;;;3.92;49.84;98377.03;3509238;28;20044;-78
2022/02/02 06:48:58;;;;;;;;;;;;;;;4.05;49.76;98364.97;3512981;28;20428;-77
2022/02/02 06:50:42;;;;;;;4.15;3.22;;;;;;;4.04;49.72;98371.28;3513037;28;20011;-78
2022/02/02 06:52:27;;;;;;;3.45;2.92;;;;;;;4.06;49.50;98372.72;3511492;28;20562;-79
2022/02/02 06:54:21;;;;;;;4.85;3.30;;;;;;;4.07;49.48;98378.81;3512823;28;20036;-78
2022/02/02 06:59:28;;;;;;;4.22;3.75;;;;;;;4.09;49.53;98379.44;3513056;28;20051;-77
2022/02/02 07:02:45;;;;;;;5.70;3.40;;;;;;;4.10;49.15;98391.59;3512552;28;20043;-78
2022/02/02 07:07:22;;;;;;;7.57;3.85;;;;;;;4.13;49.07;98380.69;3449314;28;20049;-77
2022/02/02 07:11:13;;;;;;;5.05;3.67;;;;;;;4.16;49.01;98382.97;3457873;28;20046;-76
2022/02/02 07:18:31;;;;;;;6.32;4.05;;;;;;;4.15;49.06;98387.41;3459281;28;20041;-76
2022/02/02 07:22:05;;;;;;;4.78;3.60;;;;;;;4.25;49.04;98396.84;3460421;28;20046;-77
2022/02/02 07:27:38;;;;;;;4.40;3.28;;;;;;;4.32;49.12;98408.31;3457518;28;20042;-78
2022/02/02 07:33:11;;;;;;;6.45;3.20;;;;;;;4.45;48.76;98407.63;3443700;28;20046;-78
2022/02/02 07:35:11;;;;;;;5.65;3.03;;;;;;;4.49;48.87;98417.63;3458472;28;20050;-79
2022/02/02 07:36:56;;;;;;;4.57;3.53;;;;;;;4.49;48.65;98414.16;3460685;28;20049;-79
2022/02/02 07:39:02;;;;;;;5.32;3.13;;;;;;;4.57;48.84;98412.22;3461862;28;20571;-80
2022/02/02 07:40:46;;;;;;;4.03;3.33;;;;;;;4.50;48.61;98421.09;3472925;28;20059;-77
2022/02/02 07:42:28;;;;;;;5.32;3.55;;;;;;;4.50;48.71;98415.81;3510544;28;20055;-78
2022/02/02 07:44:17;;;;;;;4.30;3.57;;;;;;;4.51;48.66;98417.44;3511289;28;20122;-81
2022/02/02 07:46:01;;;;;;;4.72;3.20;;;;;;;4.52;48.48;98419.09;3511918;28;20044;-79
2022/02/02 07:47:45;;;;;;;5.78;3.47;;;;;;;4.54;48.53;98424.97;3511726;28;20048;-79
2022/02/02 07:49:30;;;;;;;6.05;2.95;;;;;;;4.57;48.56;98425.44;3511865;28;20040;-82
2022/02/02 07:51:11;;;;;;;6.30;4.00;;;;;;;4.63;48.73;98429.13;3511570;28;20121;-82
2022/02/02 07:52:52;;;;;;;4.18;3.13;;;;;;;4.66;48.76;98430.56;3511609;28;20495;-80
2022/02/02 07:54:37;;;;;;;5.80;3.88;;;;;;;4.73;48.73;98442.84;3511491;28;20380;-80
2022/02/02 07:56:20;;;;;;;6.28;2.95;;;;;;;4.76;48.92;98441.66;3525031;28;20157;-78
2022/02/02 07:58:02;;;;;;;4.13;3.00;;;;;;;4.79;48.69;98452.63;3514661;28;20047;-79
2022/02/02 08:00:06;;;;;;;5.38;3.55;;;;;;;4.83;48.67;98450.44;3513054;28;20048;-80
2022/02/02 08:01:57;;;;;;;6.13;4.28;;;;;;;4.84;48.58;98449.44;3513106;28;20067;-76
2022/02/02 08:03:41;;;;;;;3.92;2.70;;;;;;;4.81;48.66;98445.34;3512993;28;20379;-80
2022/02/02 08:05:22;;;;;;;7.45;3.25;;;;;;;4.80;48.49;98448.16;3512149;28;20084;-79
2022/02/02 08:07:04;;;;;;;5.32;3.30;;;;;;;4.76;48.37;98460.13;3511621;28;20418;-77
2022/02/02 08:08:49;;;;;;;4.65;3.10;;;;;;;4.67;48.20;98454.13;3510480;28;20040;-80
2022/02/02 08:10:30;;;;;;;4.25;3.30;;;;;;;4.59;48.13;98464.81;3508312;28;20059;-80
2022/02/02 08:12:19;;;;;;;5.00;3.33;;;;;;;4.58;48.19;98455.25;3511288;28;20043;-79
2022/02/02 08:14:01;;;;;;;5.95;3.60;;;;;;;4.57;48.27;98458.91;3509821;28;20043;-77
2022/02/02 08:15:43;;;;;;;4.38;2.75;;;;;;;4.57;48.39;98464.19;3511146;28;20068;-78
2022/02/02 08:17:23;;;;;;;3.30;2.97;;;;;;;4.61;48.35;98456.72;3510990;28;20047;-77
2022/02/02 08:19:04;;;;;;;4.20;2.63;;;;;;;4.63;48.31;98463.44;3510766;28;20446;-79
2022/02/02 08:20:45;;;;;;;5.05;2.55;;;;;;;4.66;48.51;98470.97;3510940;28;20147;-82
2022/02/02 08:22:29;;;;;;;2.60;2.40;;;;;;;4.68;48.47;98468.16;3510846;28;20058;-79
2022/02/02 08:24:11;;;;;;;2.78;2.45;;;;;;;4.71;48.41;98465.94;3510812;28;20040;-79
2022/02/02 08:25:52;;;;;;;;;;;;;;;4.84;48.44;98475.03;3511101;28;20142;-77
2022/02/02 08:27:39;;;;;;;5.43;1.90;;;;;;;4.75;48.29;98472.50;3510691;28;20342;-78
2022/02/02 08:29:22;;;;;;;5.65;2.90;;;;;;;4.74;48.17;98475.31;3510604;28;20050;-81
2022/02/02 08:31:02;;;;;;;4.45;3.30;;;;;;;4.71;48.27;98465.94;3509220;28;20134;-77
2022/02/02 08:32:50;;;;;;;4.95;2.72;;;;;;;4.75;48.27;98474.31;3510579;28;20044;-76
2022/02/02 08:34:31;;;;;;;4.22;2.83;;;;;;;4.76;48.19;98484.69;3510764;28;20089;-79
2022/02/02 08:36:15;;;;;;;3.92;2.78;;;;;;;4.68;48.15;98468.97;3510146;28;20071;-80
2022/02/02 08:40:10;;;;;;;3.67;2.55;;;;;;;4.67;47.90;98484.97;3510502;28;20579;-77
2022/02/02 08:41:58;;;;;;;4.05;2.67;;;;;;;4.66;47.99;98476.25;3510609;28;20048;-79
2022/02/02 08:43:44;;;;;;;3.70;2.78;;;;;;;4.68;48.07;98484.81;3510368;28;20122;-77
2022/02/02 08:45:28;;;;;;;3.65;3.22;;;;;;;4.63;47.92;98494.28;3510665;28;20039;-79
2022/02/02 08:47:12;;;;;;;4.10;2.60;;;;;;;4.58;47.85;98486.94;3510769;28;20040;-78
2022/02/02 08:48:55;;;;;;;3.78;2.80;;;;;;;4.56;47.91;98495.00;3510477;28;20040;-79
2022/02/02 08:50:49;;;;;;;3.55;2.75;;;;;;;4.56;47.89;98494.19;3510495;28;20032;-79
2022/02/02 08:52:46;;;;;;;3.20;2.25;;;;;;;4.62;47.88;98484.72;3509607;28;20079;-78
2022/02/02 08:56:40;;;;;;;4.13;3.00;;;;;;;4.66;47.99;98493.91;3510541;28;20032;-80
2022/02/02 09:00:35;;;;;;;5.30;2.60;;;;;;;4.74;47.84;98491.16;3493936;28;20052;-78
2022/02/02 09:02:21;;;;;;;4.00;2.33;;;;;;;4.76;47.95;98489.16;3480950;28;20049;-79
2022/02/02 09:06:00;;;;;;;3.58;2.40;;;;;;;4.74;47.75;98489.31;3494266;28;20190;-79
2022/02/02 09:07:41;;;;;;;4.68;2.95;;;;;;;4.77;47.79;98491.59;3494702;28;20048;-80
2022/02/02 09:09:36;;;;;;;5.53;3.20;;;;;;;4.81;47.79;98494.69;3495962;28;20143;-80
2022/02/02 09:23:28;;;;;;;2.97;2.65;;;;;;;4.98;47.89;98505.81;3494253;28;20048;-80
2022/02/02 09:25:16;;;;;;;5.10;2.85;;;;;;;5.01;47.85;98497.53;3494268;28;20071;-79
2022/02/02 09:34:31;;;;;;;8.05;2.90;;;;;;;5.13;47.83;98511.84;3494260;28;20075;-81
2022/02/02 09:36:16;;;;;;;4.43;3.00;;;;;;;5.13;47.89;98511.84;3498915;28;20086;-81
2022/02/02 09:37:57;;;;;;;5.00;3.05;;;;;;;5.15;47.88;98515.13;3509372;28;20566;-79
2022/02/02 09:39:44;;;;;;;5.53;2.42;;;;;;;5.15;47.83;98520.41;3509600;28;20032;-80
2022/02/02 09:41:38;;;;;;;5.50;2.92;;;;;;;5.18;47.91;98516.56;3509749;28;20447;-77
2022/02/02 09:43:22;;;;;;;7.45;2.95;;;;;;;5.23;47.63;98515.00;3509657;28;20440;-78
2022/02/02 09:45:09;;;;;;;3.92;3.30;;;;;;;5.32;47.74;98514.88;3509511;28;20032;-78
2022/02/02 09:47:05;;;;;;;3.25;2.17;;;;;;;5.40;47.61;98517.41;3508490;28;20047;-81
2022/02/02 09:48:51;;;;;;;3.35;2.10;;;;;;;5.47;47.59;98528.81;3512528;28;20062;-79
2022/02/02 09:50:38;;;;;;;5.85;2.72;;;;;;;5.47;47.57;98519.09;3497323;28;20070;-78
2022/02/02 09:52:21;;;;;;;2.67;2.10;;;;;;;5.46;47.30;98525.38;3508307;28;20101;-79
2022/02/02 09:54:10;;;;;;;3.38;2.35;;;;;;;5.44;47.21;98529.19;3512041;28;20040;-79
2022/02/02 10:07:21;;;;;;;4.35;2.60;;;;;;;5.68;46.83;98520.06;3510982;28;20051;-78
2022/02/02 10:09:09;;;;;;;4.47;2.90;;;;;;;5.72;46.75;98515.22;3495664;28;20048;-80
2022/02/02 10:11:08;;;;;;;3.00;2.47;;;;;;;5.71;46.51;98524.16;3511900;28;20040;-76
2022/02/02 10:14:50;;;;;;;2.80;2.08;;;;;;;5.71;46.25;98518.88;3496855;28;20109;-79
2022/02/02 10:16:31;;;;;;;;;;;;;;;5.84;46.32;98522.41;3510173;28;20044;-78
2022/02/02 10:18:22;;;;;;;2.00;1.80;;;;;;;5.77;45.99;98524.19;3508083;28;20052;-79
2022/02/02 10:20:18;;;;;;;3.45;2.53;;;;;;;5.83;45.78;98526.06;3510113;28;20039;-76
2022/02/02 10:21:58;;;;;;;3.25;2.13;;;;;;;5.77;45.76;98523.38;3513557;28;20371;-77
2022/02/02 10:23:41;;;;;;;3.83;2.22;;;;;;;5.78;45.96;98522.34;3512630;28;20051;-81
2022/02/02 10:25:29;;;;;;;3.28;2.47;;;;;;;5.72;46.05;98523.13;3511897;28;20396;-78
2022/02/02 10:27:34;;;;;;;3.20;1.90;;;;;;;5.77;45.81;98531.31;3497504;28;20136;-79
2022/02/02 10:29:16;;;;;;;4.10;2.13;;;;;;;5.75;45.99;98530.69;3512143;28;20440;-78
2022/02/02 10:31:06;;;;;;;4.25;2.03;;;;;;;5.75;45.79;98531.47;3511250;28;20036;-78
2022/02/02 10:32:49;;;;;;;2.90;2.08;;;;;;;5.69;45.83;98522.50;3509561;28;20036;-78
2022/02/02 10:34:41;;;;;;;3.88;1.95;;;;;;;5.68;45.88;98536.75;3511925;28;20040;-77
2022/02/02 10:36:21;;;;;;;2.38;2.17;;;;;;;5.64;45.97;98527.53;3514703;28;20047;-79
2022/02/02 10:38:10;;;;;;;5.80;2.33;;;;;;;5.62;46.00;98532.19;3515595;28;20048;-79
2022/02/02 10:39:51;;;;;;;3.67;2.25;;;;;;;5.60;45.93;98528.94;3528989;28;20071;-77
2022/02/02 10:42:07;;;;;;;4.78;2.90;;;;;;;5.63;45.99;98530.41;3515359;28;20048;-77
2022/02/02 10:43:55;;;;;;;2.55;2.17;;;;;;;5.59;46.04;98521.22;3517259;28;20058;-78
2022/02/02 10:45:36;;;;;;;2.67;2.17;;;;;;;5.58;45.73;98525.69;3516055;28;20040;-75
2022/02/02 10:47:22;;;;;;;5.13;2.88;;;;;;;5.55;45.81;98528.72;3517859;28;20046;-76
2022/02/02 10:49:22;;;;;;;3.00;2.20;;;;;;;5.57;46.10;98524.03;3517194;28;20126;-78
2022/02/02 10:51:17;;;;;;;3.25;2.10;;;;;;;5.62;45.96;98520.81;3518035;28;20578;-79
2022/02/02 10:53:27;;;;;;;3.50;2.60;;;;;;;5.68;46.17;98515.59;3515214;28;20434;-79
2022/02/02 10:57:59;;;;;;;3.35;2.40;;;;;;;5.71;46.06;98524.97;3459988;28;20041;-79
2022/02/02 11:01:34;;;;;;;4.25;3.28;;;;;;;5.69;46.18;98519.84;3475371;28;20076;-79
2022/02/02 11:07:14;;;;;;;2.05;1.88;;;;;;;5.72;46.12;98517.84;3474662;28;20045;-77
2022/02/02 11:08:59;;;;;;;2.45;2.05;;;;;;;5.74;46.21;98519.28;3474864;28;20049;-78
2022/02/02 11:10:40;;;;;;;3.95;2.95;;;;;;;5.74;46.30;98527.22;3474638;28;20038;-78
2022/02/02 11:12:28;;;;;;;2.85;2.35;;;;;;;5.76;46.08;98521.75;3474550;28;20041;-77
2022/02/02 11:14:22;;;;;;;22.70;3.83;;;;;;;5.78;46.13;98527.66;3457622;28;20097;-77
2022/02/02 11:16:03;;;;;;;3.80;2.47;;;;;;;5.77;46.23;98528.66;3458706;28;20050;-79
2022/02/02 11:17:55;;;;;;;3.60;2.15;;;;;;;5.78;45.99;98531.13;3471162;28;20037;-77
2022/02/02 11:19:38;;;;;;;2.67;2.28;;;;;;;5.74;45.97;98529.06;3459055;28;20084;-78
2022/02/02 11:21:21;;;;;;;4.18;2.45;;;;;;;5.68;45.97;98534.09;3468908;28;20041;-78
2022/02/02 11:23:01;;;;;;;2.25;2.05;;;;;;;5.62;45.94;98532.19;3469388;28;20132;-78
2022/02/02 11:24:42;;;;;;;3.03;2.10;;;;;;;5.62;45.82;98540.13;3468172;28;20048;-78
2022/02/02 11:26:41;;;;;;;2.33;2.13;;;;;;;5.66;45.99;98543.22;3468189;28;20424;-78
2022/02/02 11:28:27;;;;;;;3.00;2.35;;;;;;;5.61;45.80;98545.63;3482028;28;20526;-78
2022/02/02 11:30:10;;;;;;;4.30;2.55;;;;;;;5.60;45.88;98549.25;3511113;28;20055;-77
2022/02/02 11:32:14;;;;;;;2.85;2.47;;;;;;;5.62;45.77;98547.25;3507989;28;20440;-77
2022/02/02 11:33:57;;;;;;;3.85;2.58;;;;;;;5.55;45.88;98544.56;3502839;28;20040;-77
2022/02/02 11:35:45;;;;;;;3.55;2.50;;;;;;;5.56;45.77;98545.38;3511089;28;20039;-77
2022/02/02 11:37:57;;;;;;;4.15;2.50;;;;;;;5.60;45.97;98549.25;3511285;28;20040;-76
2022/02/02 11:39:58;;;;;;;5.57;2.13;;;;;;;5.56;45.91;98548.03;3510020;28;20126;-78
2022/02/02 11:42:10;;;;;;;2.47;2.00;;;;;;;5.57;45.94;98553.09;3511510;28;20032;-78
2022/02/02 11:44:02;;;;;;;3.72;2.63;;;;;;;5.59;45.70;98556.38;3511048;28;20808;-80
2022/02/02 11:45:55;;;;;;;;;;;;;;;5.68;45.66;98560.53;3511418;28;20119;-76
2022/02/02 11:47:40;;;;;;;3.78;2.38;;;;;;;5.58;45.62;98557.41;3511019;28;20413;-79
2022/02/02 11:49:46;;;;;;;3.53;2.05;;;;;;;5.54;45.57;98571.16;3511745;28;20105;-81
2022/02/02 11:51:41;;;;;;;3.63;2.22;;;;;;;5.52;45.72;98563.41;3510413;28;20132;-80
2022/02/02 11:53:53;;;;;;;3.65;2.47;;;;;;;5.54;45.93;98571.16;3511643;28;20047;-78
2022/02/02 11:55:34;;;;;;;3.00;2.53;;;;;;;5.49;45.86;98563.00;3509798;28;20055;-80
2022/02/02 11:57:19;;;;;;;3.45;2.25;;;;;;;5.47;45.83;98571.09;3510932;28;20051;-80
2022/02/02 11:59:58;;;;;;;6.07;3.10;;;;;;;5.48;46.00;98567.47;3510881;28;20047;-76
2022/02/02 12:01:44;;;;;;;4.72;2.05;;;;;;;5.44;45.93;98574.13;3510593;28;20062;-77
2022/02/02 12:04:06;;;;;;;2.47;2.28;;;;;;;5.46;46.04;98580.84;3511298;28;20036;-78
2022/02/02 12:05:59;;;;;;;3.13;2.30;;;;;;;5.38;45.89;98574.88;3510258;28;20134;-78
2022/02/02 12:08:04;;;;;;;4.43;2.60;;;;;;;5.36;46.01;98580.34;3511019;28;20055;-80
2022/02/02 12:09:57;;;;;;;2.83;2.17;;;;;;;5.29;46.12;98574.19;3510192;28;20065;-78
2022/02/02 12:47:29;;;;;;;3.28;2.08;;;;;;;4.98;46.17;98608.78;3510728;28;20496;-79
2022/02/02 12:57:22;;;;;;;2.17;1.90;;;;;;;5.03;46.38;98611.69;3510789;28;20086;-79
2022/02/02 12:59:23;;;;;;;5.05;3.53;;;;;;;5.04;46.53;98610.69;3510430;28;20036;-79
2022/02/02 13:01:12;;;;;;;5.60;2.22;;;;;;;5.05;46.41;98614.97;3512422;28;20119;-80
2022/02/02 13:02:52;;;;;;;4.82;2.53;;;;;;;5.06;46.58;98613.97;3512913;28;20555;-78
2022/02/02 13:04:34;;;;;;;7.10;3.20;;;;;;;5.04;46.66;98618.63;3512421;28;20036;-76
2022/02/02 13:06:16;;;;;;;2.90;2.27;;;;;;;5.01;46.52;98619.81;3512211;28;20526;-79
2022/02/02 13:08:00;;;;;;;4.85;2.70;;;;;;;4.99;46.61;98621.81;3510564;28;20406;-79
2022/02/02 13:09:43;;;;;;;3.15;2.38;;;;;;;4.95;46.52;98627.66;3508584;28;20274;-77
2022/02/02 13:11:30;;;;;;;3.97;2.95;;;;;;;4.90;46.42;98615.00;3508461;28;20043;-78
2022/02/02 13:13:21;;;;;;;4.60;2.60;;;;;;;4.89;46.56;98613.38;3511771;28;20384;-78
2022/02/02 13:16:47;;;;;;;3.70;3.20;;;;;;;4.88;46.43;98610.91;3511977;28;20047;-78
2022/02/02 13:18:40;;;;;;;3.43;2.80;;;;;;;4.89;46.58;98604.63;3509677;28;20066;-79
2022/02/02 13:22:30;;;;;;;5.90;2.65;;;;;;;4.91;46.49;98610.56;3510811;28;20040;-80
2022/02/02 13:24:16;;;;;;;4.63;2.58;;;;;;;4.88;46.72;98608.25;3511450;28;20044;-80
2022/02/02 13:26:05;;;;;;;4.55;2.63;;;;;;;4.90;46.67;98614.19;3510532;28;20044;-79
2022/02/02 13:27:50;;;;;;;4.93;2.45;;;;;;;4.89;46.77;98618.66;3510949;28;20201;-79
2022/02/02 13:29:50;;;;;;;4.10;2.75;;;;;;;4.90;46.75;98625.53;3510033;28;20573;-77
2022/02/02 13:33:32;;;;;;;5.10;2.30;;;;;;;4.92;46.69;98625.38;3510477;28;20410;-78
2022/02/02 13:35:26;;;;;;;4.80;2.63;;;;;;;4.94;46.58;98629.47;3510008;28;20541;-79
2022/02/02 13:38:17;;;;;;;6.32;2.40;;;;;;;4.99;46.65;98634.19;3509705;28;20487;-79
2022/02/02 13:45:49;;;;;;;4.53;2.17;;;;;;;5.01;46.22;98646.22;3509937;28;20052;-79
2022/02/02 13:53:19;;;;;;;3.25;2.33;;;;;;;4.90;46.47;98659.06;3509637;28;20145;-76
2022/02/02 13:55:29;;;;;;;6.07;2.17;;;;;;;4.92;46.27;98662.34;3508998;28;20036;-77
2022/02/02 14:01:03;;;;;;;3.05;2.35;;;;;;;4.80;46.22;98668.09;3512354;28;20043;-79
2022/02/02 14:11:11;;;;;;;5.65;2.65;;;;;;;4.75;46.59;98688.09;3509841;28;20063;-80
2022/02/02 14:32:33;;;;;;;8.15;3.03;;;;;;;4.81;47.38;98698.75;3388418;29;20048;-72
2022/02/02 14:34:14;;;;;;;9.10;3.70;;;;;;;4.81;47.28;98711.94;3391185;29;20495;-71
2022/02/02 14:35:58;;;;;;;7.00;3.25;;;;;;;4.80;47.60;98710.31;3406034;29;20044;-71
2022/02/02 14:37:43;;;;;;;8.68;2.95;;;;;;;4.80;47.78;98709.47;3416232;29;20039;-75